Beehive, Montana
Current Conditions -  °F | °C
As of 2:53 PM on Wednesday 22 Oct 2014 (Local Time) from KLVM Reporting Station
Clear Clear  
Wind Chill: 16°   Ceiling: Unl
Heat Index: 16°   Visibility: 10mi
Dew Point: -4°   Wind: 26mph
Humidity: 25%   Direction: 240°WSW
Pressure: 29.98"   Gusts: 36mph
Location:  45.4577°N, 109.823°W
Report Text: KLVM 222053Z AUTO 24023G31KT 10SM CLR 16/M04 A2998 RMK AO2 PK WND 23035/2001 SLP136 T01561044 58014
Loading
Personal Weather Stations






























Interactive Weather Map
Tropical Storm Tracking
New forecast layout! Learn more

10-Day Weather Forecast

Advertisements
Track Severe Weather on mobile